sensor_id;sensor_type;location;lat;lon;timestamp;temperature;humidity
4520;DHT22;2272;49.226;8.108;2022-10-14T00:01:00;12.70;99.90
4520;DHT22;2272;49.226;8.108;2022-10-14T00:03:27;12.70;99.90
4520;DHT22;2272;49.226;8.108;2022-10-14T00:05:54;12.70;99.90
4520;DHT22;2272;49.226;8.108;2022-10-14T00:08:22;12.70;99.90
4520;DHT22;2272;49.226;8.108;2022-10-14T00:10:49;12.70;99.90
4520;DHT22;2272;49.226;8.108;2022-10-14T00:13:17;12.70;99.90
4520;DHT22;2272;49.226;8.108;2022-10-14T00:15:44;12.70;99.90
4520;DHT22;2272;49.226;8.108;2022-10-14T00:18:10;12.70;99.90
4520;DHT22;2272;49.226;8.108;2022-10-14T00:20:37;12.60;99.90
4520;DHT22;2272;49.226;8.108;2022-10-14T00:23:04;12.70;99.90
4520;DHT22;2272;49.226;8.108;2022-10-14T00:25:30;12.70;99.90
4520;DHT22;2272;49.226;8.108;2022-10-14T00:27:57;12.70;99.90
4520;DHT22;2272;49.226;8.108;2022-10-14T00:30:29;12.70;99.90
4520;DHT22;2272;49.226;8.108;2022-10-14T00:32:56;12.80;99.90
4520;DHT22;2272;49.226;8.108;2022-10-14T00:35:22;12.80;99.90
4520;DHT22;2272;49.226;8.108;2022-10-14T00:37:49;12.80;99.90
4520;DHT22;2272;49.226;8.108;2022-10-14T00:40:16;12.80;99.90
4520;DHT22;2272;49.226;8.108;2022-10-14T00:42:42;12.90;99.90
4520;DHT22;2272;49.226;8.108;2022-10-14T00:45:15;12.90;99.90
4520;DHT22;2272;49.226;8.108;2022-10-14T00:47:43;12.90;99.90
4520;DHT22;2272;49.226;8.108;2022-10-14T00:50:11;12.90;99.90
4520;DHT22;2272;49.226;8.108;2022-10-14T00:52:39;12.90;99.90
4520;DHT22;2272;49.226;8.108;2022-10-14T00:55:09;12.90;99.90
4520;DHT22;2272;49.226;8.108;2022-10-14T00:57:37;12.90;99.90
4520;DHT22;2272;49.226;8.108;2022-10-14T01:00:06;12.80;99.90
4520;DHT22;2272;49.226;8.108;2022-10-14T01:02:34;12.80;99.90
4520;DHT22;2272;49.226;8.108;2022-10-14T01:05:04;12.70;99.90
4520;DHT22;2272;49.226;8.108;2022-10-14T01:07:42;12.70;99.90
4520;DHT22;2272;49.226;8.108;2022-10-14T01:10:16;12.70;99.90
4520;DHT22;2272;49.226;8.108;2022-10-14T01:12:54;12.70;99.90
4520;DHT22;2272;49.226;8.108;2022-10-14T01:15:29;12.70;99.90
4520;DHT22;2272;49.226;8.108;2022-10-14T01:18:08;12.70;99.90
4520;DHT22;2272;49.226;8.108;2022-10-14T01:21:01;12.70;99.90
4520;DHT22;2272;49.226;8.108;2022-10-14T01:23:45;12.70;99.90
4520;DHT22;2272;49.226;8.108;2022-10-14T01:26:53;12.70;99.90
4520;DHT22;2272;49.226;8.108;2022-10-14T01:29:51;12.70;99.90
4520;DHT22;2272;49.226;8.108;2022-10-14T01:32:24;12.70;99.90
4520;DHT22;2272;49.226;8.108;2022-10-14T01:34:55;12.70;99.90
4520;DHT22;2272;49.226;8.108;2022-10-14T01:37:27;12.70;99.90
4520;DHT22;2272;49.226;8.108;2022-10-14T01:39:58;12.70;99.90
4520;DHT22;2272;49.226;8.108;2022-10-14T01:42:29;12.60;99.90
4520;DHT22;2272;49.226;8.108;2022-10-14T01:45:03;12.60;99.90
4520;DHT22;2272;49.226;8.108;2022-10-14T01:47:33;12.60;99.90
4520;DHT22;2272;49.226;8.108;2022-10-14T01:50:04;12.60;99.90
4520;DHT22;2272;49.226;8.108;2022-10-14T01:52:36;12.60;99.90
4520;DHT22;2272;49.226;8.108;2022-10-14T01:55:07;12.60;99.90
4520;DHT22;2272;49.226;8.108;2022-10-14T01:57:36;12.60;99.90
4520;DHT22;2272;49.226;8.108;2022-10-14T02:00:06;12.60;99.90
4520;DHT22;2272;49.226;8.108;2022-10-14T02:02:35;12.60;99.90
4520;DHT22;2272;49.226;8.108;2022-10-14T02:05:03;12.50;99.90
4520;DHT22;2272;49.226;8.108;2022-10-14T02:07:35;12.50;99.90
4520;DHT22;2272;49.226;8.108;2022-10-14T02:10:12;12.40;99.90
4520;DHT22;2272;49.226;8.108;2022-10-14T02:12:48;12.40;99.90
4520;DHT22;2272;49.226;8.108;2022-10-14T02:15:22;12.30;99.90
4520;DHT22;2272;49.226;8.108;2022-10-14T02:17:59;12.30;99.90
4520;DHT22;2272;49.226;8.108;2022-10-14T02:20:31;12.30;99.90
4520;DHT22;2272;49.226;8.108;2022-10-14T02:23:02;12.20;99.90
4520;DHT22;2272;49.226;8.108;2022-10-14T02:25:34;12.30;99.90
4520;DHT22;2272;49.226;8.108;2022-10-14T02:28:03;12.20;99.90
4520;DHT22;2272;49.226;8.108;2022-10-14T02:30:37;12.20;99.90
4520;DHT22;2272;49.226;8.108;2022-10-14T02:33:06;12.20;99.90
4520;DHT22;2272;49.226;8.108;2022-10-14T02:35:35;12.20;99.90
4520;DHT22;2272;49.226;8.108;2022-10-14T02:38:04;12.10;99.90
4520;DHT22;2272;49.226;8.108;2022-10-14T02:40:36;12.10;99.90
4520;DHT22;2272;49.226;8.108;2022-10-14T02:43:05;12.10;99.90
4520;DHT22;2272;49.226;8.108;2022-10-14T02:45:35;12.00;99.90
4520;DHT22;2272;49.226;8.108;2022-10-14T02:48:03;12.00;99.90
4520;DHT22;2272;49.226;8.108;2022-10-14T02:50:30;11.90;99.90
4520;DHT22;2272;49.226;8.108;2022-10-14T02:52:56;11.90;99.90
4520;DHT22;2272;49.226;8.108;2022-10-14T02:55:23;11.90;99.90
4520;DHT22;2272;49.226;8.108;2022-10-14T02:57:50;11.80;99.90
4520;DHT22;2272;49.226;8.108;2022-10-14T03:00:17;11.80;99.90
4520;DHT22;2272;49.226;8.108;2022-10-14T03:02:45;11.80;99.90
4520;DHT22;2272;49.226;8.108;2022-10-14T03:05:12;11.80;99.90
4520;DHT22;2272;49.226;8.108;2022-10-14T03:07:39;11.80;99.90
4520;DHT22;2272;49.226;8.108;2022-10-14T03:10:06;11.80;99.90
4520;DHT22;2272;49.226;8.108;2022-10-14T03:12:33;11.70;99.90
4520;DHT22;2272;49.226;8.108;2022-10-14T03:14:59;11.70;99.90
4520;DHT22;2272;49.226;8.108;2022-10-14T03:17:26;11.60;99.90
4520;DHT22;2272;49.226;8.108;2022-10-14T03:19:54;11.50;99.90
4520;DHT22;2272;49.226;8.108;2022-10-14T03:22:21;11.40;99.90
4520;DHT22;2272;49.226;8.108;2022-10-14T03:24:48;11.20;99.90
4520;DHT22;2272;49.226;8.108;2022-10-14T03:27:14;11.20;99.90
4520;DHT22;2272;49.226;8.108;2022-10-14T03:29:41;11.30;99.90
4520;DHT22;2272;49.226;8.108;2022-10-14T03:32:08;11.30;99.90
4520;DHT22;2272;49.226;8.108;2022-10-14T03:34:34;11.40;99.90
4520;DHT22;2272;49.226;8.108;2022-10-14T03:37:02;11.50;99.90
4520;DHT22;2272;49.226;8.108;2022-10-14T03:39:29;11.50;99.90
4520;DHT22;2272;49.226;8.108;2022-10-14T03:41:56;11.60;99.90
4520;DHT22;2272;49.226;8.108;2022-10-14T03:44:23;11.60;99.90
4520;DHT22;2272;49.226;8.108;2022-10-14T03:46:50;11.70;99.90
4520;DHT22;2272;49.226;8.108;2022-10-14T03:49:16;11.70;99.90
4520;DHT22;2272;49.226;8.108;2022-10-14T03:51:43;11.70;99.90
4520;DHT22;2272;49.226;8.108;2022-10-14T03:54:11;11.70;99.90
4520;DHT22;2272;49.226;8.108;2022-10-14T03:56:38;11.70;99.90
4520;DHT22;2272;49.226;8.108;2022-10-14T03:59:04;11.70;99.90
4520;DHT22;2272;49.226;8.108;2022-10-14T04:01:31;11.70;99.90
4520;DHT22;2272;49.226;8.108;2022-10-14T04:03:58;11.70;99.90
4520;DHT22;2272;49.226;8.108;2022-10-14T04:06:25;11.70;99.90
4520;DHT22;2272;49.226;8.108;2022-10-14T04:08:51;11.70;99.90
4520;DHT22;2272;49.226;8.108;2022-10-14T04:11:19;11.60;99.90
4520;DHT22;2272;49.226;8.108;2022-10-14T04:13:46;11.60;99.90
4520;DHT22;2272;49.226;8.108;2022-10-14T04:16:13;11.60;99.90
4520;DHT22;2272;49.226;8.108;2022-10-14T04:18:40;11.50;99.90
4520;DHT22;2272;49.226;8.108;2022-10-14T04:21:09;11.50;99.90
4520;DHT22;2272;49.226;8.108;2022-10-14T04:23:37;11.40;99.90
4520;DHT22;2272;49.226;8.108;2022-10-14T04:26:04;11.40;99.90
4520;DHT22;2272;49.226;8.108;2022-10-14T04:28:33;11.50;99.90
4520;DHT22;2272;49.226;8.108;2022-10-14T04:31:00;11.60;99.90
4520;DHT22;2272;49.226;8.108;2022-10-14T04:33:27;11.60;99.90
4520;DHT22;2272;49.226;8.108;2022-10-14T04:35:56;11.70;99.90
4520;DHT22;2272;49.226;8.108;2022-10-14T04:38:24;11.70;99.90
4520;DHT22;2272;49.226;8.108;2022-10-14T04:40:50;11.80;99.90
4520;DHT22;2272;49.226;8.108;2022-10-14T04:43:17;11.80;99.90
4520;DHT22;2272;49.226;8.108;2022-10-14T04:45:45;11.90;99.90
4520;DHT22;2272;49.226;8.108;2022-10-14T04:48:12;11.90;99.90
4520;DHT22;2272;49.226;8.108;2022-10-14T04:50:39;11.90;99.90
4520;DHT22;2272;49.226;8.108;2022-10-14T04:53:05;12.00;99.90
4520;DHT22;2272;49.226;8.108;2022-10-14T04:55:32;12.00;99.90
4520;DHT22;2272;49.226;8.108;2022-10-14T04:57:59;12.00;99.90
4520;DHT22;2272;49.226;8.108;2022-10-14T05:00:26;12.00;99.90
4520;DHT22;2272;49.226;8.108;2022-10-14T05:02:54;12.10;99.90
4520;DHT22;2272;49.226;8.108;2022-10-14T05:05:21;12.00;99.90
4520;DHT22;2272;49.226;8.108;2022-10-14T05:07:47;12.00;99.90
4520;DHT22;2272;49.226;8.108;2022-10-14T05:10:14;12.00;99.90
4520;DHT22;2272;49.226;8.108;2022-10-14T05:12:41;11.90;99.90
4520;DHT22;2272;49.226;8.108;2022-10-14T05:15:08;11.90;99.90
4520;DHT22;2272;49.226;8.108;2022-10-14T05:17:35;11.80;99.90
4520;DHT22;2272;49.226;8.108;2022-10-14T05:20:06;11.70;99.90
4520;DHT22;2272;49.226;8.108;2022-10-14T05:22:33;11.60;99.90
4520;DHT22;2272;49.226;8.108;2022-10-14T05:24:59;11.60;99.90
4520;DHT22;2272;49.226;8.108;2022-10-14T05:27:26;11.60;99.90
4520;DHT22;2272;49.226;8.108;2022-10-14T05:29:53;11.60;99.90
4520;DHT22;2272;49.226;8.108;2022-10-14T05:32:20;11.60;99.90
4520;DHT22;2272;49.226;8.108;2022-10-14T05:34:47;11.70;99.90
4520;DHT22;2272;49.226;8.108;2022-10-14T05:37:15;11.70;99.90
4520;DHT22;2272;49.226;8.108;2022-10-14T05:39:42;11.70;99.90
4520;DHT22;2272;49.226;8.108;2022-10-14T05:42:09;11.70;99.90
4520;DHT22;2272;49.226;8.108;2022-10-14T05:44:35;11.80;99.90
4520;DHT22;2272;49.226;8.108;2022-10-14T05:47:02;11.80;99.90
4520;DHT22;2272;49.226;8.108;2022-10-14T05:49:29;11.90;99.90
4520;DHT22;2272;49.226;8.108;2022-10-14T05:51:56;12.00;99.90
4520;DHT22;2272;49.226;8.108;2022-10-14T05:54:24;12.00;99.90
4520;DHT22;2272;49.226;8.108;2022-10-14T05:56:51;12.00;99.90
4520;DHT22;2272;49.226;8.108;2022-10-14T05:59:18;12.10;99.90
4520;DHT22;2272;49.226;8.108;2022-10-14T06:01:45;12.10;99.90
4520;DHT22;2272;49.226;8.108;2022-10-14T06:04:16;12.20;99.90
4520;DHT22;2272;49.226;8.108;2022-10-14T06:06:43;12.20;99.90
4520;DHT22;2272;49.226;8.108;2022-10-14T06:09:10;12.20;99.90
4520;DHT22;2272;49.226;8.108;2022-10-14T06:11:38;12.30;99.90
4520;DHT22;2272;49.226;8.108;2022-10-14T06:14:05;12.30;99.90
4520;DHT22;2272;49.226;8.108;2022-10-14T06:16:32;12.30;99.90
4520;DHT22;2272;49.226;8.108;2022-10-14T06:18:59;12.40;99.90
4520;DHT22;2272;49.226;8.108;2022-10-14T06:21:25;12.50;99.90
4520;DHT22;2272;49.226;8.108;2022-10-14T06:23:52;12.60;99.90
4520;DHT22;2272;49.226;8.108;2022-10-14T06:26:19;12.70;99.90
4520;DHT22;2272;49.226;8.108;2022-10-14T06:28:47;12.90;99.90
4520;DHT22;2272;49.226;8.108;2022-10-14T06:31:14;13.10;99.90
4520;DHT22;2272;49.226;8.108;2022-10-14T06:33:41;13.10;99.90
4520;DHT22;2272;49.226;8.108;2022-10-14T06:36:09;13.20;99.90
4520;DHT22;2272;49.226;8.108;2022-10-14T06:38:36;13.30;99.90
4520;DHT22;2272;49.226;8.108;2022-10-14T06:41:03;13.40;99.90
4520;DHT22;2272;49.226;8.108;2022-10-14T06:43:30;13.50;99.90
4520;DHT22;2272;49.226;8.108;2022-10-14T06:45:58;13.60;99.90
4520;DHT22;2272;49.226;8.108;2022-10-14T06:48:25;13.70;99.90
4520;DHT22;2272;49.226;8.108;2022-10-14T06:50:52;13.80;99.90
4520;DHT22;2272;49.226;8.108;2022-10-14T06:53:19;13.90;99.90
4520;DHT22;2272;49.226;8.108;2022-10-14T06:55:45;13.90;99.90
4520;DHT22;2272;49.226;8.108;2022-10-14T06:58:12;13.90;99.90
4520;DHT22;2272;49.226;8.108;2022-10-14T07:00:39;14.00;99.90
4520;DHT22;2272;49.226;8.108;2022-10-14T07:03:07;14.00;99.90
4520;DHT22;2272;49.226;8.108;2022-10-14T07:05:34;14.10;99.90
4520;DHT22;2272;49.226;8.108;2022-10-14T07:08:01;14.20;99.90
4520;DHT22;2272;49.226;8.108;2022-10-14T07:10:28;14.40;99.90
4520;DHT22;2272;49.226;8.108;2022-10-14T07:12:55;14.40;99.90
4520;DHT22;2272;49.226;8.108;2022-10-14T07:15:21;14.50;99.90
4520;DHT22;2272;49.226;8.108;2022-10-14T07:17:48;14.60;99.90
4520;DHT22;2272;49.226;8.108;2022-10-14T07:20:16;14.60;99.90
4520;DHT22;2272;49.226;8.108;2022-10-14T07:22:43;14.60;99.90
4520;DHT22;2272;49.226;8.108;2022-10-14T07:25:10;14.50;99.90
4520;DHT22;2272;49.226;8.108;2022-10-14T07:27:37;14.50;99.90
4520;DHT22;2272;49.226;8.108;2022-10-14T07:30:04;14.50;99.90
4520;DHT22;2272;49.226;8.108;2022-10-14T07:32:34;14.50;99.90
4520;DHT22;2272;49.226;8.108;2022-10-14T07:35:01;14.50;99.90
4520;DHT22;2272;49.226;8.108;2022-10-14T07:37:29;14.60;99.90
4520;DHT22;2272;49.226;8.108;2022-10-14T07:39:56;14.70;99.90
4520;DHT22;2272;49.226;8.108;2022-10-14T07:42:23;14.80;99.90
4520;DHT22;2272;49.226;8.108;2022-10-14T07:44:49;14.90;99.90
4520;DHT22;2272;49.226;8.108;2022-10-14T07:47:18;15.10;99.90
4520;DHT22;2272;49.226;8.108;2022-10-14T07:49:45;15.20;99.90
4520;DHT22;2272;49.226;8.108;2022-10-14T07:52:11;15.30;99.90
4520;DHT22;2272;49.226;8.108;2022-10-14T07:54:41;15.30;99.90
4520;DHT22;2272;49.226;8.108;2022-10-14T07:57:08;15.40;99.90
4520;DHT22;2272;49.226;8.108;2022-10-14T07:59:34;15.40;99.90
4520;DHT22;2272;49.226;8.108;2022-10-14T08:02:03;15.40;99.90
4520;DHT22;2272;49.226;8.108;2022-10-14T08:04:29;15.40;99.90
4520;DHT22;2272;49.226;8.108;2022-10-14T08:06:56;15.50;99.90
4520;DHT22;2272;49.226;8.108;2022-10-14T08:09:23;15.60;99.90
4520;DHT22;2272;49.226;8.108;2022-10-14T08:11:51;15.70;99.90
4520;DHT22;2272;49.226;8.108;2022-10-14T08:14:18;15.70;99.90
4520;DHT22;2272;49.226;8.108;2022-10-14T08:16:45;15.80;99.90
4520;DHT22;2272;49.226;8.108;2022-10-14T08:19:12;16.00;99.90
4520;DHT22;2272;49.226;8.108;2022-10-14T08:21:39;16.10;99.90
4520;DHT22;2272;49.226;8.108;2022-10-14T08:24:07;16.20;99.90
4520;DHT22;2272;49.226;8.108;2022-10-14T08:26:35;16.40;99.90
4520;DHT22;2272;49.226;8.108;2022-10-14T08:29:09;16.50;99.90
4520;DHT22;2272;49.226;8.108;2022-10-14T08:31:36;16.60;99.90
4520;DHT22;2272;49.226;8.108;2022-10-14T08:34:03;16.80;99.90
4520;DHT22;2272;49.226;8.108;2022-10-14T08:36:30;16.90;99.90
4520;DHT22;2272;49.226;8.108;2022-10-14T08:38:57;17.00;99.90
4520;DHT22;2272;49.226;8.108;2022-10-14T08:41:33;17.10;99.90
4520;DHT22;2272;49.226;8.108;2022-10-14T08:44:11;17.30;99.90
4520;DHT22;2272;49.226;8.108;2022-10-14T08:46:41;17.30;99.90
4520;DHT22;2272;49.226;8.108;2022-10-14T08:49:11;17.50;99.90
4520;DHT22;2272;49.226;8.108;2022-10-14T08:51:42;17.50;99.90
4520;DHT22;2272;49.226;8.108;2022-10-14T08:54:23;17.60;99.90
4520;DHT22;2272;49.226;8.108;2022-10-14T08:56:52;17.70;99.90
4520;DHT22;2272;49.226;8.108;2022-10-14T08:59:21;17.70;99.90
4520;DHT22;2272;49.226;8.108;2022-10-14T09:01:53;17.70;99.90
4520;DHT22;2272;49.226;8.108;2022-10-14T09:04:22;17.60;99.90
4520;DHT22;2272;49.226;8.108;2022-10-14T09:06:50;17.40;99.90
4520;DHT22;2272;49.226;8.108;2022-10-14T09:09:21;17.30;99.90
4520;DHT22;2272;49.226;8.108;2022-10-14T09:11:52;17.10;99.90
4520;DHT22;2272;49.226;8.108;2022-10-14T09:14:24;17.10;99.90
4520;DHT22;2272;49.226;8.108;2022-10-14T09:16:54;17.10;99.90
4520;DHT22;2272;49.226;8.108;2022-10-14T09:19:30;17.20;99.90
4520;DHT22;2272;49.226;8.108;2022-10-14T09:21:59;17.20;99.90
4520;DHT22;2272;49.226;8.108;2022-10-14T09:24:31;17.20;99.90
4520;DHT22;2272;49.226;8.108;2022-10-14T09:27:03;17.20;99.90
4520;DHT22;2272;49.226;8.108;2022-10-14T09:29:36;17.10;99.90
4520;DHT22;2272;49.226;8.108;2022-10-14T09:32:07;17.10;99.90
4520;DHT22;2272;49.226;8.108;2022-10-14T09:34:39;17.20;99.90
4520;DHT22;2272;49.226;8.108;2022-10-14T09:37:22;17.10;99.90
4520;DHT22;2272;49.226;8.108;2022-10-14T09:39:50;17.10;99.90
4520;DHT22;2272;49.226;8.108;2022-10-14T09:42:21;17.00;99.90
4520;DHT22;2272;49.226;8.108;2022-10-14T09:45:05;17.00;99.90
4520;DHT22;2272;49.226;8.108;2022-10-14T09:47:38;17.00;99.90
4520;DHT22;2272;49.226;8.108;2022-10-14T09:50:08;16.80;99.90
4520;DHT22;2272;49.226;8.108;2022-10-14T09:52:39;16.70;99.90
4520;DHT22;2272;49.226;8.108;2022-10-14T09:55:15;16.40;99.90
4520;DHT22;2272;49.226;8.108;2022-10-14T09:57:44;16.30;99.90
4520;DHT22;2272;49.226;8.108;2022-10-14T10:00:25;16.10;99.90
4520;DHT22;2272;49.226;8.108;2022-10-14T10:02:53;16.10;99.90
4520;DHT22;2272;49.226;8.108;2022-10-14T10:05:23;16.00;99.90
4520;DHT22;2272;49.226;8.108;2022-10-14T10:08:04;16.00;99.90
4520;DHT22;2272;49.226;8.108;2022-10-14T10:10:32;15.90;99.90
4520;DHT22;2272;49.226;8.108;2022-10-14T10:13:00;15.90;99.90
4520;DHT22;2272;49.226;8.108;2022-10-14T10:15:29;15.80;99.90
4520;DHT22;2272;49.226;8.108;2022-10-14T10:17:56;15.70;99.90
4520;DHT22;2272;49.226;8.108;2022-10-14T10:20:25;15.60;99.90
4520;DHT22;2272;49.226;8.108;2022-10-14T10:23:09;15.60;99.90
4520;DHT22;2272;49.226;8.108;2022-10-14T10:25:41;15.50;99.90
4520;DHT22;2272;49.226;8.108;2022-10-14T10:28:15;15.60;99.90
4520;DHT22;2272;49.226;8.108;2022-10-14T10:30:58;15.60;99.90
4520;DHT22;2272;49.226;8.108;2022-10-14T10:33:35;15.80;99.90
4520;DHT22;2272;49.226;8.108;2022-10-14T10:36:17;16.00;99.90
4520;DHT22;2272;49.226;8.108;2022-10-14T10:38:57;16.10;99.90
4520;DHT22;2272;49.226;8.108;2022-10-14T10:41:42;16.20;99.90
4520;DHT22;2272;49.226;8.108;2022-10-14T10:44:37;16.30;99.90
4520;DHT22;2272;49.226;8.108;2022-10-14T10:47:18;16.40;99.90
4520;DHT22;2272;49.226;8.108;2022-10-14T10:50:00;16.50;99.90
4520;DHT22;2272;49.226;8.108;2022-10-14T10:52:43;16.60;99.90
4520;DHT22;2272;49.226;8.108;2022-10-14T10:55:21;16.60;99.90
4520;DHT22;2272;49.226;8.108;2022-10-14T10:58:00;16.50;99.90
4520;DHT22;2272;49.226;8.108;2022-10-14T11:00:33;16.30;99.90
4520;DHT22;2272;49.226;8.108;2022-10-14T11:03:19;16.10;99.90
4520;DHT22;2272;49.226;8.108;2022-10-14T11:05:56;16.00;99.90
4520;DHT22;2272;49.226;8.108;2022-10-14T11:08:52;15.90;99.90
4520;DHT22;2272;49.226;8.108;2022-10-14T11:11:49;16.00;99.90
4520;DHT22;2272;49.226;8.108;2022-10-14T11:17:43;16.50;99.90
4520;DHT22;2272;49.226;8.108;2022-10-14T11:20:29;16.60;99.90
4520;DHT22;2272;49.226;8.108;2022-10-14T11:23:20;16.80;99.90
4520;DHT22;2272;49.226;8.108;2022-10-14T11:25:54;17.00;99.90
4520;DHT22;2272;49.226;8.108;2022-10-14T11:28:28;17.20;99.90
4520;DHT22;2272;49.226;8.108;2022-10-14T11:31:04;17.20;99.90
4520;DHT22;2272;49.226;8.108;2022-10-14T11:33:51;17.20;99.90
4520;DHT22;2272;49.226;8.108;2022-10-14T11:36:30;17.20;99.90
4520;DHT22;2272;49.226;8.108;2022-10-14T11:39:11;17.10;99.90
4520;DHT22;2272;49.226;8.108;2022-10-14T11:41:57;17.10;99.90
4520;DHT22;2272;49.226;8.108;2022-10-14T11:44:32;17.00;99.90
4520;DHT22;2272;49.226;8.108;2022-10-14T11:47:02;16.70;99.90
4520;DHT22;2272;49.226;8.108;2022-10-14T11:49:33;16.60;99.90
4520;DHT22;2272;49.226;8.108;2022-10-14T11:52:06;16.60;99.90
4520;DHT22;2272;49.226;8.108;2022-10-14T11:54:37;16.90;99.90
4520;DHT22;2272;49.226;8.108;2022-10-14T11:57:11;17.10;99.90
4520;DHT22;2272;49.226;8.108;2022-10-14T11:59:55;17.30;99.90
4520;DHT22;2272;49.226;8.108;2022-10-14T12:02:31;17.50;99.90
4520;DHT22;2272;49.226;8.108;2022-10-14T12:05:04;17.70;99.90
4520;DHT22;2272;49.226;8.108;2022-10-14T12:07:36;18.00;99.90
4520;DHT22;2272;49.226;8.108;2022-10-14T12:10:12;18.30;99.90
4520;DHT22;2272;49.226;8.108;2022-10-14T12:12:42;18.50;99.90
4520;DHT22;2272;49.226;8.108;2022-10-14T12:15:15;18.60;99.90
4520;DHT22;2272;49.226;8.108;2022-10-14T12:17:46;18.70;99.90
4520;DHT22;2272;49.226;8.108;2022-10-14T12:20:21;18.60;99.90
4520;DHT22;2272;49.226;8.108;2022-10-14T12:22:54;18.60;99.90
4520;DHT22;2272;49.226;8.108;2022-10-14T12:25:23;18.40;99.90
4520;DHT22;2272;49.226;8.108;2022-10-14T12:27:52;18.30;99.90
4520;DHT22;2272;49.226;8.108;2022-10-14T12:30:34;18.30;99.90
4520;DHT22;2272;49.226;8.108;2022-10-14T12:33:03;18.30;99.90
4520;DHT22;2272;49.226;8.108;2022-10-14T12:35:49;18.40;99.90
4520;DHT22;2272;49.226;8.108;2022-10-14T12:38:18;18.40;99.90
4520;DHT22;2272;49.226;8.108;2022-10-14T12:40:46;18.40;99.90
4520;DHT22;2272;49.226;8.108;2022-10-14T12:43:24;18.20;99.90
4520;DHT22;2272;49.226;8.108;2022-10-14T12:46:02;17.90;99.90
4520;DHT22;2272;49.226;8.108;2022-10-14T12:48:36;17.70;99.90
4520;DHT22;2272;49.226;8.108;2022-10-14T12:51:10;17.50;99.90
4520;DHT22;2272;49.226;8.108;2022-10-14T12:53:48;17.50;99.90
4520;DHT22;2272;49.226;8.108;2022-10-14T12:56:28;17.40;99.90
4520;DHT22;2272;49.226;8.108;2022-10-14T12:58:57;17.20;99.90
4520;DHT22;2272;49.226;8.108;2022-10-14T13:01:27;17.00;99.90
4520;DHT22;2272;49.226;8.108;2022-10-14T13:03:57;16.70;99.90
4520;DHT22;2272;49.226;8.108;2022-10-14T13:06:27;16.60;99.90
4520;DHT22;2272;49.226;8.108;2022-10-14T13:09:28;16.50;99.90
4520;DHT22;2272;49.226;8.108;2022-10-14T13:15:46;16.30;99.90
4520;DHT22;2272;49.226;8.108;2022-10-14T13:21:27;16.20;99.90
4520;DHT22;2272;49.226;8.108;2022-10-14T13:23:58;16.20;99.90
4520;DHT22;2272;49.226;8.108;2022-10-14T13:26:35;16.10;99.90
4520;DHT22;2272;49.226;8.108;2022-10-14T13:29:15;16.20;99.90
4520;DHT22;2272;49.226;8.108;2022-10-14T13:31:52;16.30;99.90
4520;DHT22;2272;49.226;8.108;2022-10-14T13:34:28;16.40;99.90
4520;DHT22;2272;49.226;8.108;2022-10-14T13:37:02;16.50;99.90
4520;DHT22;2272;49.226;8.108;2022-10-14T13:39:35;16.70;99.90
4520;DHT22;2272;49.226;8.108;2022-10-14T13:42:03;16.90;99.90
4520;DHT22;2272;49.226;8.108;2022-10-14T13:44:30;16.90;99.90
4520;DHT22;2272;49.226;8.108;2022-10-14T13:46:59;16.80;99.90
4520;DHT22;2272;49.226;8.108;2022-10-14T13:49:32;16.80;99.90
4520;DHT22;2272;49.226;8.108;2022-10-14T13:52:02;16.80;99.90
4520;DHT22;2272;49.226;8.108;2022-10-14T13:54:31;16.80;99.90
4520;DHT22;2272;49.226;8.108;2022-10-14T13:57:00;16.90;99.90
4520;DHT22;2272;49.226;8.108;2022-10-14T13:59:29;16.90;99.90
4520;DHT22;2272;49.226;8.108;2022-10-14T14:02:00;17.00;99.90
4520;DHT22;2272;49.226;8.108;2022-10-14T14:04:31;16.80;99.90
4520;DHT22;2272;49.226;8.108;2022-10-14T14:06:59;16.60;99.90
4520;DHT22;2272;49.226;8.108;2022-10-14T14:09:28;16.40;99.90
4520;DHT22;2272;49.226;8.108;2022-10-14T14:11:58;16.30;99.90
4520;DHT22;2272;49.226;8.108;2022-10-14T14:14:33;16.10;99.90
4520;DHT22;2272;49.226;8.108;2022-10-14T14:17:02;16.00;99.90
4520;DHT22;2272;49.226;8.108;2022-10-14T14:19:31;15.90;99.90
4520;DHT22;2272;49.226;8.108;2022-10-14T14:22:06;15.90;99.90
4520;DHT22;2272;49.226;8.108;2022-10-14T14:24:33;15.80;99.90
4520;DHT22;2272;49.226;8.108;2022-10-14T14:27:00;15.80;99.90
4520;DHT22;2272;49.226;8.108;2022-10-14T14:29:31;15.80;99.90
4520;DHT22;2272;49.226;8.108;2022-10-14T14:32:00;15.70;99.90
4520;DHT22;2272;49.226;8.108;2022-10-14T14:34:30;15.70;99.90
4520;DHT22;2272;49.226;8.108;2022-10-14T14:36:58;15.70;99.90
4520;DHT22;2272;49.226;8.108;2022-10-14T14:39:27;15.70;99.90
4520;DHT22;2272;49.226;8.108;2022-10-14T14:41:56;15.60;99.90
4520;DHT22;2272;49.226;8.108;2022-10-14T14:44:25;15.60;99.90
4520;DHT22;2272;49.226;8.108;2022-10-14T14:46:57;15.60;99.90
4520;DHT22;2272;49.226;8.108;2022-10-14T14:49:26;15.60;99.90
4520;DHT22;2272;49.226;8.108;2022-10-14T14:51:54;15.60;99.90
4520;DHT22;2272;49.226;8.108;2022-10-14T14:54:22;15.70;99.90
4520;DHT22;2272;49.226;8.108;2022-10-14T14:56:51;15.70;99.90
4520;DHT22;2272;49.226;8.108;2022-10-14T14:59:23;15.70;99.90
4520;DHT22;2272;49.226;8.108;2022-10-14T15:01:55;15.60;99.90
4520;DHT22;2272;49.226;8.108;2022-10-14T15:04:26;15.60;99.90
4520;DHT22;2272;49.226;8.108;2022-10-14T15:06:58;15.60;99.90
4520;DHT22;2272;49.226;8.108;2022-10-14T15:09:33;15.60;99.90
4520;DHT22;2272;49.226;8.108;2022-10-14T15:12:03;15.70;99.90
4520;DHT22;2272;49.226;8.108;2022-10-14T15:14:40;15.70;99.90
4520;DHT22;2272;49.226;8.108;2022-10-14T15:17:23;15.70;99.90
4520;DHT22;2272;49.226;8.108;2022-10-14T15:19:51;15.70;99.90
4520;DHT22;2272;49.226;8.108;2022-10-14T15:22:30;15.70;99.90
4520;DHT22;2272;49.226;8.108;2022-10-14T15:27:49;15.50;99.90
4520;DHT22;2272;49.226;8.108;2022-10-14T15:30:23;15.50;99.90
4520;DHT22;2272;49.226;8.108;2022-10-14T15:32:54;15.50;99.90
4520;DHT22;2272;49.226;8.108;2022-10-14T15:35:23;15.40;99.90
4520;DHT22;2272;49.226;8.108;2022-10-14T15:37:51;15.40;99.90
4520;DHT22;2272;49.226;8.108;2022-10-14T15:40:20;15.40;99.90
4520;DHT22;2272;49.226;8.108;2022-10-14T15:42:48;15.40;99.90
4520;DHT22;2272;49.226;8.108;2022-10-14T15:45:15;15.50;99.90
4520;DHT22;2272;49.226;8.108;2022-10-14T15:47:42;15.50;99.90
4520;DHT22;2272;49.226;8.108;2022-10-14T15:50:16;15.40;99.90
4520;DHT22;2272;49.226;8.108;2022-10-14T15:52:43;15.40;99.90
4520;DHT22;2272;49.226;8.108;2022-10-14T15:55:15;15.40;99.90
4520;DHT22;2272;49.226;8.108;2022-10-14T15:57:44;15.30;99.90
4520;DHT22;2272;49.226;8.108;2022-10-14T16:00:11;15.30;99.90
4520;DHT22;2272;49.226;8.108;2022-10-14T16:02:38;15.30;99.90
4520;DHT22;2272;49.226;8.108;2022-10-14T16:05:08;15.30;99.90
4520;DHT22;2272;49.226;8.108;2022-10-14T16:07:36;15.20;99.90
4520;DHT22;2272;49.226;8.108;2022-10-14T16:10:04;15.20;99.90
4520;DHT22;2272;49.226;8.108;2022-10-14T16:12:31;15.10;99.90
4520;DHT22;2272;49.226;8.108;2022-10-14T16:14:58;15.10;99.90
4520;DHT22;2272;49.226;8.108;2022-10-14T16:17:26;15.10;99.90
4520;DHT22;2272;49.226;8.108;2022-10-14T16:19:52;15.00;99.90
4520;DHT22;2272;49.226;8.108;2022-10-14T16:22:19;15.00;99.90
4520;DHT22;2272;49.226;8.108;2022-10-14T16:24:47;15.00;99.90
4520;DHT22;2272;49.226;8.108;2022-10-14T16:27:14;14.90;99.90
4520;DHT22;2272;49.226;8.108;2022-10-14T16:29:41;14.90;99.90
4520;DHT22;2272;49.226;8.108;2022-10-14T16:32:08;14.80;99.90
4520;DHT22;2272;49.226;8.108;2022-10-14T16:34:35;14.80;99.90
4520;DHT22;2272;49.226;8.108;2022-10-14T16:37:01;14.70;99.90